createdAt,value
2017-09-11T00:00:59.531Z,87.31
2017-09-11T00:03:27.848Z,87.07
2017-09-11T00:05:57.169Z,87.46
2017-09-11T00:08:26.303Z,87.74
2017-09-11T00:10:54.631Z,87.84
2017-09-11T00:13:23.011Z,88.36
2017-09-11T00:15:51.342Z,87.71
2017-09-11T00:18:20.629Z,87.86
2017-09-11T00:21:40.376Z,88.38
2017-09-11T00:24:08.727Z,87.80
2017-09-11T00:26:37.149Z,87.73
2017-09-11T00:29:05.486Z,87.38
2017-09-11T00:31:33.814Z,87.54
2017-09-11T00:34:02.904Z,87.66
2017-09-11T00:36:31.292Z,87.16
2017-09-11T00:38:59.607Z,87.55
2017-09-11T00:41:27.945Z,87.67
2017-09-11T00:43:57.077Z,87.89
2017-09-11T00:46:25.438Z,87.99
2017-09-11T00:48:53.792Z,87.83
2017-09-11T00:51:22.134Z,87.24
2017-09-11T00:53:50.466Z,87.24
2017-09-11T00:56:19.618Z,87.42
2017-09-11T00:58:47.939Z,87.85
2017-09-11T01:01:17.179Z,87.89
2017-09-11T01:03:45.517Z,87.79
2017-09-11T01:06:14.688Z,87.87
2017-09-11T01:08:43.030Z,88.05
2017-09-11T01:11:11.379Z,87.93
2017-09-11T01:13:40.579Z,87.78
2017-09-11T01:16:09.675Z,87.79
2017-09-11T01:18:38.765Z,87.82
2017-09-11T01:21:07.108Z,88.17
2017-09-11T01:23:35.429Z,88.21
2017-09-11T01:26:04.023Z,88.10
2017-09-11T01:28:32.370Z,87.89
2017-09-11T01:31:00.684Z,88.37
2017-09-11T01:33:29.042Z,88.40
2017-09-11T01:35:58.141Z,87.83
2017-09-11T01:38:27.267Z,87.53
2017-09-11T01:40:55.589Z,87.67
2017-09-11T01:43:25.100Z,87.92
2017-09-11T01:45:53.414Z,87.76
2017-09-11T01:48:22.509Z,87.66
2017-09-11T01:50:50.836Z,86.72
2017-09-11T01:53:19.204Z,86.93
2017-09-11T01:55:48.300Z,85.85
2017-09-11T01:58:17.375Z,85.77
2017-09-11T02:00:45.705Z,85.05
2017-09-11T02:03:14.041Z,85.11
2017-09-11T02:05:42.356Z,85.16
2017-09-11T02:08:10.713Z,84.49
2017-09-11T02:10:39.109Z,83.61
2017-09-11T02:13:07.546Z,83.48
2017-09-11T02:15:35.915Z,83.79
2017-09-11T02:18:05.313Z,83.67
2017-09-11T02:20:33.631Z,84.41
2017-09-11T02:23:01.969Z,83.75
2017-09-11T02:25:31.066Z,83.38
2017-09-11T02:28:00.259Z,83.55
2017-09-11T02:30:29.398Z,83.67
2017-09-11T02:32:57.725Z,83.58
2017-09-11T02:35:26.073Z,83.64
2017-09-11T02:37:54.394Z,83.56
2017-09-11T02:40:23.537Z,83.99
2017-09-11T02:42:51.880Z,84.32
2017-09-11T02:45:20.218Z,84.55
2017-09-11T02:47:48.543Z,84.56
2017-09-11T02:50:17.641Z,84.62
2017-09-11T02:52:46.239Z,84.78
2017-09-11T02:55:14.582Z,85.34
2017-09-11T02:57:42.918Z,85.42
2017-09-11T03:00:12.158Z,85.43
2017-09-11T03:02:40.492Z,85.88
2017-09-11T03:05:08.843Z,85.38
2017-09-11T03:07:37.930Z,85.71
2017-09-11T03:10:06.267Z,85.76
2017-09-11T03:12:34.607Z,86.39
2017-09-11T03:15:02.956Z,87.23
2017-09-11T03:17:31.305Z,87.01
2017-09-11T03:19:59.633Z,86.92
2017-09-11T03:22:28.030Z,87.12
2017-09-11T03:24:56.380Z,87.39
2017-09-11T03:27:25.488Z,87.47
2017-09-11T03:29:53.798Z,87.30
2017-09-11T03:32:22.130Z,87.36
2017-09-11T03:34:50.536Z,87.42
2017-09-11T03:37:18.945Z,87.65
2017-09-11T03:39:47.297Z,87.70
2017-09-11T03:42:15.624Z,87.24
2017-09-11T03:44:44.240Z,87.30
2017-09-11T03:47:12.563Z,87.31
2017-09-11T03:49:40.878Z,87.93
2017-09-11T03:52:09.211Z,88.60
2017-09-11T03:54:37.528Z,88.40
2017-09-11T03:57:05.965Z,88.43
2017-09-11T03:59:34.317Z,88.37
2017-09-11T04:02:03.428Z,88.48
2017-09-11T04:04:31.752Z,88.68
2017-09-11T04:07:00.093Z,89.29
2017-09-11T04:09:28.434Z,89.44
2017-09-11T04:11:56.839Z,89.18
2017-09-11T04:14:25.949Z,89.38
2017-09-11T04:16:54.257Z,89.33
2017-09-11T04:19:22.619Z,89.30
2017-09-11T04:21:51.639Z,89.35
2017-09-11T04:24:19.983Z,89.96
2017-09-11T04:26:48.324Z,90.54
2017-09-11T04:29:16.647Z,89.85
2017-09-11T04:31:48.680Z,89.97
2017-09-11T04:34:17.014Z,90.03
2017-09-11T04:36:45.953Z,90.33
2017-09-11T04:39:14.275Z,90.44
2017-09-11T04:41:42.604Z,90.07
2017-09-11T04:44:10.938Z,90.08
2017-09-11T04:46:40.031Z,90.72
2017-09-11T04:49:08.374Z,90.19
2017-09-11T04:51:37.480Z,89.89
2017-09-11T04:54:06.558Z,89.39
2017-09-11T04:56:35.065Z,89.48
2017-09-11T04:59:03.404Z,91.04
2017-09-11T05:01:31.742Z,91.03
2017-09-11T05:04:00.098Z,91.55
2017-09-11T05:06:28.423Z,91.23
2017-09-11T05:08:56.781Z,91.37
2017-09-11T05:11:25.126Z,90.80
2017-09-11T05:13:53.476Z,90.37
2017-09-11T05:16:21.825Z,90.37
2017-09-11T05:18:51.398Z,90.43
2017-09-11T05:21:20.499Z,90.46
2017-09-11T05:23:48.832Z,90.58
2017-09-11T05:26:17.559Z,90.53
2017-09-11T05:28:45.892Z,90.68
2017-09-11T05:31:14.230Z,90.97
2017-09-11T05:33:42.569Z,91.09
2017-09-11T05:36:10.881Z,91.22
2017-09-11T05:38:39.261Z,91.45
2017-09-11T05:41:07.575Z,91.04
2017-09-11T05:43:35.906Z,91.06
2017-09-11T05:46:04.248Z,91.28
2017-09-11T05:48:32.576Z,91.75
2017-09-11T05:51:01.706Z,91.51
2017-09-11T05:53:30.036Z,91.36
2017-09-11T05:55:59.129Z,91.28
2017-09-11T05:58:27.501Z,91.18
2017-09-11T06:00:55.833Z,90.61
2017-09-11T06:03:24.173Z,90.60
2017-09-11T06:05:52.491Z,90.19
2017-09-11T06:08:20.847Z,90.23
2017-09-11T06:10:49.963Z,90.60
2017-09-11T06:13:18.294Z,90.75
2017-09-11T06:15:46.607Z,90.38
2017-09-11T06:18:14.962Z,90.17
2017-09-11T06:20:44.047Z,90.61
2017-09-11T06:23:12.393Z,89.86
2017-09-11T06:25:40.742Z,90.28
2017-09-11T06:28:09.073Z,90.15
2017-09-11T06:30:37.404Z,90.38
2017-09-11T06:33:05.721Z,90.32
2017-09-11T06:35:34.078Z,90.41
2017-09-11T06:38:02.424Z,90.17
2017-09-11T06:40:30.735Z,90.33
2017-09-11T06:42:59.073Z,90.12
2017-09-11T06:45:28.169Z,90.28
2017-09-11T06:47:56.771Z,90.17
2017-09-11T06:50:25.858Z,90.53
2017-09-11T06:52:54.183Z,90.08
2017-09-11T06:55:22.516Z,90.18
2017-09-11T06:57:51.603Z,90.33
2017-09-11T07:00:20.297Z,90.14
2017-09-11T07:02:48.620Z,90.24
2017-09-11T07:05:16.961Z,90.53
2017-09-11T07:07:46.077Z,90.27
2017-09-11T07:10:14.415Z,90.68
2017-09-11T07:15:55.298Z,90.32
2017-09-11T07:18:23.675Z,90.39
2017-09-11T07:20:51.991Z,89.68
2017-09-11T07:23:20.580Z,89.49
2017-09-11T07:25:48.891Z,89.63
2017-09-11T07:28:17.216Z,89.28
2017-09-11T07:30:45.560Z,89.66
2017-09-11T07:33:13.888Z,89.57
2017-09-11T07:35:42.240Z,89.66
2017-09-11T07:38:10.579Z,89.33
2017-09-11T07:40:38.934Z,89.36
2017-09-11T07:43:07.266Z,88.91
2017-09-11T07:45:35.612Z,89.54
2017-09-11T07:48:03.966Z,89.01
2017-09-11T07:50:33.069Z,88.43
2017-09-11T07:53:01.407Z,89.61
2017-09-11T07:55:29.732Z,90.08
2017-09-11T07:57:58.073Z,89.81
2017-09-11T08:00:26.412Z,88.69
2017-09-11T08:02:54.757Z,88.58
2017-09-11T08:05:23.120Z,88.66
2017-09-11T08:07:51.456Z,88.37
2017-09-11T08:10:19.793Z,86.69
2017-09-11T08:12:48.889Z,88.44
2017-09-11T08:15:18.020Z,87.06
2017-09-11T08:17:46.350Z,87.49
2017-09-11T08:20:14.746Z,87.95
2017-09-11T08:22:43.861Z,86.98
2017-09-11T08:25:12.205Z,87.79
2017-09-11T08:27:40.543Z,88.21
2017-09-11T08:30:08.867Z,88.53
2017-09-11T08:32:37.472Z,88.21
2017-09-11T08:35:05.790Z,87.56
2017-09-11T08:37:34.126Z,87.67
2017-09-11T08:40:02.460Z,86.56
2017-09-11T08:42:30.778Z,88.37
2017-09-11T08:44:59.875Z,86.44
2017-09-11T08:47:28.191Z,85.71
2017-09-11T08:49:56.542Z,86.54
2017-09-11T08:52:25.654Z,86.62
2017-09-11T08:54:53.981Z,88.04
2017-09-11T08:57:22.323Z,87.34
2017-09-11T08:59:50.655Z,85.09
2017-09-11T09:02:19.451Z,84.90
2017-09-11T09:04:47.791Z,86.96
2017-09-11T09:07:16.107Z,86.19
2017-09-11T09:09:45.231Z,85.51
2017-09-11T09:12:13.574Z,85.26
2017-09-11T09:14:41.971Z,86.31
2017-09-11T09:17:10.293Z,88.01
2017-09-11T09:19:38.654Z,87.51
2017-09-11T09:22:06.983Z,83.69
2017-09-11T09:24:35.500Z,83.68
2017-09-11T09:27:03.833Z,85.22
2017-09-11T09:29:32.173Z,83.56
2017-09-11T09:32:00.520Z,81.81
2017-09-11T09:34:28.855Z,81.53
2017-09-11T09:36:57.219Z,80.57
2017-09-11T09:39:25.548Z,80.71
2017-09-11T09:41:53.884Z,80.18
2017-09-11T09:44:22.257Z,82.33
2017-09-11T09:46:50.578Z,81.40
2017-09-11T09:49:18.931Z,80.17
2017-09-11T09:51:47.271Z,76.95
2017-09-11T09:54:16.662Z,80.52
2017-09-11T09:56:44.992Z,81.79
2017-09-11T09:59:13.320Z,78.86
2017-09-11T10:01:42.432Z,77.94
2017-09-11T10:04:10.835Z,77.21
2017-09-11T10:06:39.216Z,78.27
2017-09-11T10:09:07.531Z,77.47
2017-09-11T10:11:36.244Z,74.56
2017-09-11T10:14:04.600Z,75.38
2017-09-11T10:16:32.941Z,74.88
2017-09-11T10:19:01.290Z,74.37
2017-09-11T10:21:30.375Z,75.33
2017-09-11T10:23:58.701Z,76.69
2017-09-11T10:26:27.042Z,73.10
2017-09-11T10:28:56.437Z,73.99
2017-09-11T10:31:24.760Z,72.48
2017-09-11T10:33:53.095Z,72.07
2017-09-11T10:36:22.199Z,69.62
2017-09-11T10:38:50.524Z,71.50
2017-09-11T10:41:18.871Z,68.33
2017-09-11T10:43:47.966Z,66.77
2017-09-11T10:46:16.311Z,67.50
2017-09-11T10:48:44.641Z,69.41
2017-09-11T10:51:13.051Z,69.52
2017-09-11T10:53:41.380Z,68.95
2017-09-11T10:56:10.471Z,71.43
2017-09-11T10:58:39.592Z,71.08
2017-09-11T11:01:07.928Z,70.13
2017-09-11T11:03:36.270Z,69.48
2017-09-11T11:06:04.635Z,69.77
2017-09-11T11:08:32.980Z,68.75
2017-09-11T11:11:01.337Z,66.76
2017-09-11T11:13:29.681Z,67.99
2017-09-11T11:15:58.062Z,66.87
2017-09-11T11:18:26.388Z,65.88
2017-09-11T11:20:54.739Z,66.90
2017-09-11T11:23:23.143Z,65.25
2017-09-11T11:25:51.470Z,65.97
2017-09-11T11:28:19.803Z,66.16
2017-09-11T11:30:48.135Z,66.26
2017-09-11T11:33:16.486Z,65.46
2017-09-11T11:35:45.564Z,63.30
2017-09-11T11:38:13.915Z,64.70
2017-09-11T11:40:42.258Z,65.67
2017-09-11T11:43:10.617Z,65.03
2017-09-11T11:45:38.958Z,66.52
2017-09-11T11:48:07.294Z,67.29
2017-09-11T11:50:35.646Z,68.09
2017-09-11T11:53:05.497Z,67.78
2017-09-11T11:55:34.380Z,65.79
2017-09-11T11:58:02.704Z,64.95
2017-09-11T12:00:31.044Z,66.19
2017-09-11T12:02:59.405Z,65.76
2017-09-11T12:05:28.508Z,67.21
2017-09-11T12:07:56.861Z,69.05
2017-09-11T12:10:25.186Z,68.08
2017-09-11T12:12:53.538Z,67.69
2017-09-11T12:15:22.660Z,68.08
2017-09-11T12:17:51.029Z,65.99
2017-09-11T12:20:19.364Z,64.20
2017-09-11T12:22:47.683Z,64.44
2017-09-11T12:25:16.029Z,63.85
2017-09-11T12:27:44.365Z,65.24
2017-09-11T12:30:13.617Z,64.15
2017-09-11T12:32:41.960Z,63.60
2017-09-11T12:35:11.064Z,64.36
2017-09-11T12:37:39.408Z,64.59
2017-09-11T12:40:07.753Z,64.05
2017-09-11T12:42:36.101Z,62.66
2017-09-11T12:45:04.432Z,64.51
2017-09-11T12:47:33.106Z,63.64
2017-09-11T12:50:01.421Z,63.55
2017-09-11T12:52:29.753Z,63.35
2017-09-11T12:54:59.138Z,63.39
2017-09-11T12:57:27.460Z,62.48
2017-09-11T12:59:55.816Z,61.97
2017-09-11T13:02:24.210Z,60.34
2017-09-11T13:04:53.340Z,60.29
2017-09-11T13:07:21.688Z,59.87
2017-09-11T13:09:50.026Z,58.12
2017-09-11T13:12:18.379Z,59.45
2017-09-11T13:14:46.691Z,57.42
2017-09-11T13:17:15.404Z,57.68
2017-09-11T13:19:44.500Z,57.34
2017-09-11T13:22:12.853Z,57.41
2017-09-11T13:24:41.174Z,56.26
2017-09-11T13:27:09.524Z,56.38
2017-09-11T13:29:38.244Z,56.03
2017-09-11T13:32:06.586Z,56.67
2017-09-11T13:34:34.950Z,56.19
2017-09-11T13:37:03.274Z,57.34
2017-09-11T13:39:32.651Z,57.61
2017-09-11T13:42:01.880Z,57.96
2017-09-11T13:44:30.223Z,57.06
2017-09-11T13:46:58.578Z,57.33
2017-09-11T13:49:27.001Z,57.52
2017-09-11T13:51:55.349Z,56.22
2017-09-11T13:54:23.689Z,57.39
2017-09-11T13:56:52.338Z,56.72
2017-09-11T13:59:20.655Z,57.59
2017-09-11T14:01:48.993Z,56.76
2017-09-11T14:04:17.438Z,55.78
2017-09-11T14:06:45.773Z,55.90
2017-09-11T14:09:14.893Z,55.93
2017-09-11T14:11:43.233Z,54.76
2017-09-11T14:14:11.601Z,55.72
2017-09-11T14:16:39.907Z,54.00
2017-09-11T14:19:09.022Z,54.32
2017-09-11T14:21:37.355Z,53.05
2017-09-11T14:24:05.679Z,52.95
2017-09-11T14:26:34.431Z,54.07
2017-09-11T14:29:02.759Z,54.22
2017-09-11T14:31:31.081Z,54.07
2017-09-11T14:33:59.419Z,53.95
2017-09-11T14:36:27.732Z,52.85
2017-09-11T14:38:56.584Z,52.46
2017-09-11T14:41:25.019Z,53.54
2017-09-11T14:43:53.334Z,53.60
2017-09-11T14:46:21.693Z,53.72
2017-09-11T14:48:50.805Z,55.14
2017-09-11T14:51:19.180Z,56.06
2017-09-11T14:53:48.281Z,57.04
2017-09-11T14:56:16.961Z,58.39
2017-09-11T14:58:46.052Z,63.72
2017-09-11T15:01:15.233Z,66.26
2017-09-11T15:03:43.604Z,70.50
2017-09-11T15:06:11.954Z,70.29
2017-09-11T15:08:40.285Z,69.83
2017-09-11T15:11:08.625Z,71.74
2017-09-11T15:13:36.984Z,73.35
2017-09-11T15:16:05.356Z,74.22
2017-09-11T15:18:33.710Z,74.90
2017-09-11T15:21:02.822Z,72.06
2017-09-11T15:23:31.742Z,64.87
2017-09-11T15:26:00.840Z,65.50
2017-09-11T15:28:29.182Z,60.65
2017-09-11T15:30:57.527Z,60.45
2017-09-11T15:33:25.869Z,60.53
2017-09-11T15:35:54.195Z,62.05
2017-09-11T15:38:22.555Z,57.97
2017-09-11T15:40:50.893Z,56.50
2017-09-11T15:43:19.239Z,56.93
2017-09-11T15:45:47.567Z,56.22
2017-09-11T15:48:16.212Z,57.36
2017-09-11T15:50:44.554Z,54.95
2017-09-11T15:53:12.901Z,53.93
2017-09-11T15:55:41.275Z,53.92
2017-09-11T15:58:09.599Z,54.63
2017-09-11T16:00:38.301Z,54.49
2017-09-11T16:03:06.635Z,59.19
2017-09-11T16:05:34.993Z,58.14
2017-09-11T16:08:03.345Z,58.79
2017-09-11T16:10:32.518Z,62.34
2017-09-11T16:13:00.881Z,60.58
2017-09-11T16:15:29.208Z,63.58
2017-09-11T16:17:57.571Z,62.59
2017-09-11T16:20:25.903Z,62.56
2017-09-11T16:22:54.279Z,63.12
2017-09-11T16:25:22.628Z,60.51
2017-09-11T16:27:51.749Z,60.00
2017-09-11T16:30:20.102Z,58.99
2017-09-11T16:32:49.199Z,60.03
2017-09-11T16:35:17.902Z,62.96
2017-09-11T16:37:46.237Z,63.74
2017-09-11T16:40:15.965Z,61.53
2017-09-11T16:42:44.318Z,61.65
2017-09-11T16:45:12.653Z,61.94
2017-09-11T16:47:41.315Z,62.31
2017-09-11T16:50:09.682Z,62.64
2017-09-11T16:52:37.999Z,63.08
2017-09-11T16:55:06.387Z,63.32
2017-09-11T16:57:35.471Z,64.30
2017-09-11T17:00:04.569Z,63.75
2017-09-11T17:02:33.665Z,64.67
2017-09-11T17:05:03.042Z,64.28
2017-09-11T17:07:31.377Z,65.64
2017-09-11T17:09:59.696Z,66.52
2017-09-11T17:12:28.060Z,65.72
2017-09-11T17:14:56.417Z,66.31
2017-09-11T17:17:24.809Z,67.96
2017-09-11T17:19:53.153Z,67.59
2017-09-11T17:22:22.035Z,67.00
2017-09-11T17:24:51.149Z,67.00
2017-09-11T17:27:19.470Z,68.04
2017-09-11T17:29:47.834Z,68.53
2017-09-11T17:32:16.174Z,68.47
2017-09-11T17:34:45.304Z,68.86
2017-09-11T17:37:14.060Z,69.60
2017-09-11T17:39:42.419Z,69.07
2017-09-11T17:42:11.557Z,70.54
2017-09-11T17:44:39.899Z,69.79
2017-09-11T17:47:08.252Z,69.39
2017-09-11T17:49:36.584Z,70.03
2017-09-11T17:52:04.941Z,70.05
2017-09-11T17:54:34.759Z,70.58
2017-09-11T17:57:03.117Z,71.81
2017-09-11T17:59:31.464Z,71.18
2017-09-11T18:01:59.783Z,71.24
2017-09-11T18:04:28.131Z,72.46
2017-09-11T18:06:56.494Z,72.80
2017-09-11T18:09:25.854Z,72.19
2017-09-11T18:11:54.182Z,72.80
2017-09-11T18:14:22.518Z,73.57
2017-09-11T18:16:51.625Z,74.33
2017-09-11T18:19:19.966Z,74.64
2017-09-11T18:21:48.315Z,75.22
2017-09-11T18:24:16.667Z,75.12
2017-09-11T18:26:45.443Z,76.11
2017-09-11T18:29:14.054Z,75.65
2017-09-11T18:31:42.398Z,75.90
2017-09-11T18:34:11.516Z,75.91
2017-09-11T18:36:39.835Z,76.36
2017-09-11T18:39:08.180Z,77.02
2017-09-11T18:41:36.610Z,76.96
2017-09-11T18:44:04.991Z,77.33
2017-09-11T18:46:33.342Z,77.28
2017-09-11T18:49:01.667Z,78.10
2017-09-11T18:51:30.069Z,77.30
2017-09-11T18:53:59.173Z,77.48
2017-09-11T18:56:27.522Z,77.69
2017-09-11T18:58:55.865Z,77.67
2017-09-11T19:01:24.229Z,77.86
2017-09-11T19:03:53.365Z,78.63
2017-09-11T19:06:21.727Z,77.87
2017-09-11T19:08:51.746Z,78.18
2017-09-11T19:11:20.082Z,78.34
2017-09-11T19:13:48.474Z,78.43
2017-09-11T19:16:18.825Z,78.59
2017-09-11T19:18:47.198Z,78.48
2017-09-11T19:21:15.544Z,78.66
2017-09-11T19:23:45.180Z,78.63
2017-09-11T19:26:13.537Z,79.32
2017-09-11T19:28:41.878Z,79.29
2017-09-11T19:31:10.606Z,79.08
2017-09-11T19:33:38.959Z,79.25
2017-09-11T19:36:07.398Z,79.09
2017-09-11T19:38:36.320Z,79.19
2017-09-11T19:41:04.681Z,79.09
2017-09-11T19:43:33.039Z,79.10
2017-09-11T19:46:01.375Z,79.14
2017-09-11T19:48:29.875Z,79.57
2017-09-11T19:50:59.022Z,79.29
2017-09-11T19:53:27.662Z,79.45
2017-09-11T19:55:56.759Z,79.29
2017-09-11T19:58:25.089Z,79.33
2017-09-11T20:00:54.318Z,79.29
2017-09-11T20:03:22.650Z,79.55
2017-09-11T20:05:51.044Z,79.54
2017-09-11T20:08:19.457Z,79.77
2017-09-11T20:10:47.808Z,79.97
2017-09-11T20:13:16.138Z,80.08
2017-09-11T20:15:44.453Z,80.11
2017-09-11T20:18:12.839Z,80.69
2017-09-11T20:20:41.179Z,81.08
2017-09-11T20:23:09.664Z,80.65
2017-09-11T20:25:38.017Z,81.15
2017-09-11T20:28:07.145Z,81.15
2017-09-11T20:30:35.495Z,80.58
2017-09-11T20:33:03.820Z,80.36
2017-09-11T20:35:33.020Z,80.91
2017-09-11T20:38:01.368Z,80.83
2017-09-11T20:40:29.714Z,81.54
2017-09-11T20:42:58.048Z,81.40
2017-09-11T20:45:26.722Z,81.22
2017-09-11T20:47:55.052Z,81.54
2017-09-11T20:50:23.400Z,81.69
2017-09-11T20:52:52.497Z,81.68
2017-09-11T20:55:20.825Z,82.33
2017-09-11T20:57:49.146Z,82.38
2017-09-11T21:00:17.454Z,82.23
2017-09-11T21:02:45.807Z,81.76
2017-09-11T21:05:15.197Z,81.70
2017-09-11T21:07:43.594Z,81.58
2017-09-11T21:10:11.975Z,82.28
2017-09-11T21:12:41.378Z,82.68
2017-09-11T21:15:10.226Z,82.65
2017-09-11T21:17:39.026Z,82.85
2017-09-11T21:20:08.310Z,82.61
2017-09-11T21:22:37.001Z,82.55
2017-09-11T21:25:05.967Z,82.29
2017-09-11T21:27:35.133Z,82.50
2017-09-11T21:30:04.221Z,82.04
2017-09-11T21:32:33.368Z,82.29
2017-09-11T21:35:02.385Z,82.32
2017-09-11T21:37:31.494Z,82.04
2017-09-11T21:40:01.088Z,82.05
2017-09-11T21:42:30.032Z,81.74
2017-09-11T21:44:58.883Z,81.77
2017-09-11T21:47:27.970Z,81.64
2017-09-11T21:49:58.127Z,81.39
2017-09-11T21:52:26.956Z,81.69
2017-09-11T21:54:55.807Z,82.32
2017-09-11T21:57:24.500Z,81.86
2017-09-11T21:59:53.237Z,81.48
2017-09-11T22:02:22.052Z,81.42
2017-09-11T22:04:51.760Z,81.74
2017-09-11T22:07:20.926Z,82.26
2017-09-11T22:09:49.740Z,81.82
2017-09-11T22:12:18.874Z,81.55
2017-09-11T22:14:47.641Z,81.43
2017-09-11T22:17:17.502Z,81.41
2017-09-11T22:19:45.812Z,81.48
2017-09-11T22:22:14.131Z,82.15
2017-09-11T22:24:42.459Z,81.95
2017-09-11T22:27:10.767Z,81.25
2017-09-11T22:29:39.894Z,81.16
2017-09-11T22:32:08.212Z,80.97
2017-09-11T22:34:37.277Z,81.47
2017-09-11T22:37:05.613Z,81.09
2017-09-11T22:39:34.803Z,80.89
2017-09-11T22:42:03.214Z,80.54
2017-09-11T22:44:31.571Z,80.41
2017-09-11T22:47:00.705Z,80.23
2017-09-11T22:49:29.025Z,80.21
2017-09-11T22:51:57.728Z,80.36
2017-09-11T22:54:26.036Z,80.26
2017-09-11T22:56:54.375Z,80.67
2017-09-11T22:59:22.725Z,80.53
2017-09-11T23:01:51.154Z,80.91
2017-09-11T23:04:20.255Z,80.77
2017-09-11T23:06:48.577Z,80.49
2017-09-11T23:09:16.932Z,80.47
2017-09-11T23:11:45.254Z,80.21
2017-09-11T23:14:13.583Z,80.41
2017-09-11T23:16:42.075Z,80.53
2017-09-11T23:19:10.403Z,80.82
2017-09-11T23:21:38.743Z,80.61
2017-09-11T23:24:07.052Z,80.72
2017-09-11T23:26:35.402Z,80.81
2017-09-11T23:29:03.726Z,80.96
2017-09-11T23:31:32.058Z,81.20
2017-09-11T23:34:00.412Z,80.74
2017-09-11T23:36:29.501Z,80.83
2017-09-11T23:38:58.609Z,80.31
2017-09-11T23:41:26.953Z,80.36
2017-09-11T23:43:55.332Z,80.04
2017-09-11T23:46:23.655Z,79.92
2017-09-11T23:48:52.003Z,80.42
2017-09-11T23:51:20.341Z,80.66
2017-09-11T23:53:48.674Z,80.55
2017-09-11T23:56:17.782Z,80.45
2017-09-11T23:58:46.105Z,80.51
